Paloma — V7NN4 — position and weather

sailwx.info

Track history (hours):
 
Tides and Currents Weather Stations Pressure Air Temp Water Temp Dewpoint Dewpoint Depression Visibility Wind Speed Wind Dir Waves Ship Positions

Paloma

Last reported at 2018-May-09 04:51 UTC. Time now 2018-May-21 01:29 UTC.
Position N 01°14' E 103°26'.
Warning: this ship's position is 11 days out of date.

Length 169 m; draft 8.8 m.

Type: Cargo ship. MMSI: 538007433.

Date/timePositionNaut miles runAvg speedWind from/ knotsBaromVisibWave heightAir tempDewpointWater temp
2018-May-09 04:51N 01°14' E 103°26'512.8
2018-May-09 04:28N 01°13' E 103°31'612.4
2018-May-09 03:59N 01°11' E 103°37'510.9
2018-May-09 03:30N 01°10' E 103°42'5 8.9
2018-May-09 02:59N 01°09' E 103°46'4 9.1
2018-May-09 02:30N 01°11' E 103°50'4 7.4
2018-May-09 01:59N 01°13' E 103°53'2 4.4
2018-May-09 01:28N 01°15' E 103°53'0 0.2
2018-May-09 00:57N 01°15' E 103°53'0 0.1
2018-May-09 00:27N 01°15' E 103°53'0 0.0
2018-May-08 23:59N 01°15' E 103°53'0 0.0
2018-May-08 23:26N 01°15' E 103°53'0 0.0
2018-May-08 22:58N 01°15' E 103°53'0 0.0
2018-May-08 22:27N 01°15' E 103°53'0 0.1
2018-May-08 21:48N 01°15' E 103°53'0 0.0
2018-May-08 21:24N 01°15' E 103°53'0 0.1
2018-May-08 20:55N 01°15' E 103°53'0 0.0
2018-May-08 20:30N 01°15' E 103°53'0 0.1
2018-May-08 19:55N 01°15' E 103°53'0 0.0
2018-May-08 19:29N 01°15' E 103°53'0 0.0
2018-May-08 18:57N 01°15' E 103°53'0 0.0
2018-May-08 18:28N 01°15' E 103°53'0 0.0
2018-May-08 17:56N 01°15' E 103°53'0 0.0
2018-May-08 17:30N 01°15' E 103°53'0 0.0
2018-May-08 16:57N 01°15' E 103°53'0 0.1
2018-May-08 16:30N 01°15' E 103°53'0 0.0
2018-May-08 15:59N 01°15' E 103°53'0 0.0
2018-May-08 15:26N 01°15' E 103°53'0 0.0
2018-May-08 14:56N 01°15' E 103°53'0 0.0
2018-May-08 14:23N 01°15' E 103°53'0 0.2
2018-May-08 14:00N 01°15' E 103°53'2 4.5
2018-May-08 13:30N 01°14' E 103°55'5 8.2
2018-May-08 12:56N 01°15' E 103°59'3 7.4
2018-May-08 12:30N 01°16' E 104°02'5 9.4
2018-May-08 11:57N 01°17' E 104°07'410.2
2018-May-08 11:30N 01°17' E 104°12'610.1
2018-May-08 10:57N 01°18' E 104°17'612.4
2018-May-08 10:30N 01°21' E 104°22'612.4
2018-May-08 09:59N 01°25' E 104°27'  
2018-Apr-29 14:42N 37°20' E 123°34'212.9
2018-Apr-29 14:30N 37°23' E 123°34'8710.9
2018-Apr-29 06:32N 38°28' E 122°20'112.4
2018-Apr-29 06:27N 38°28' E 122°19'612.3
2018-Apr-29 05:56N 38°32' E 122°13'612.1
2018-Apr-29 05:27N 38°36' E 122°07'512.0
2018-Apr-29 05:00N 38°39' E 122°02'  
Track history (hours):
 
Tides and Currents Weather Stations Pressure Air Temp Water Temp Dewpoint Dewpoint Depression Visibility Wind Speed Wind Dir Waves Ship Positions

Paloma

Last reported at 2018-May-09 04:51 UTC. Time now 2018-May-21 01:29 UTC.
Position N 01°14' E 103°26'.
Warning: this ship's position is 11 days out of date.

Length 169 m; draft 8.8 m.

Type: Cargo ship. MMSI: 538007433.

Date/timePositionNaut miles runAvg speedWind from/ knotsBaromVisibWave heightAir tempDewpointWater temp
2018-May-09 04:51N 01°14' E 103°26'512.8
2018-May-09 04:28N 01°13' E 103°31'612.4
2018-May-09 03:59N 01°11' E 103°37'510.9
2018-May-09 03:30N 01°10' E 103°42'5 8.9
2018-May-09 02:59N 01°09' E 103°46'4 9.1
2018-May-09 02:30N 01°11' E 103°50'4 7.4
2018-May-09 01:59N 01°13' E 103°53'2 4.4
2018-May-09 01:28N 01°15' E 103°53'0 0.2
2018-May-09 00:57N 01°15' E 103°53'0 0.1
2018-May-09 00:27N 01°15' E 103°53'0 0.0
2018-May-08 23:59N 01°15' E 103°53'0 0.0
2018-May-08 23:26N 01°15' E 103°53'0 0.0
2018-May-08 22:58N 01°15' E 103°53'0 0.0
2018-May-08 22:27N 01°15' E 103°53'0 0.1
2018-May-08 21:48N 01°15' E 103°53'0 0.0
2018-May-08 21:24N 01°15' E 103°53'0 0.1
2018-May-08 20:55N 01°15' E 103°53'0 0.0
2018-May-08 20:30N 01°15' E 103°53'0 0.1
2018-May-08 19:55N 01°15' E 103°53'0 0.0
2018-May-08 19:29N 01°15' E 103°53'0 0.0
2018-May-08 18:57N 01°15' E 103°53'0 0.0
2018-May-08 18:28N 01°15' E 103°53'0 0.0
2018-May-08 17:56N 01°15' E 103°53'0 0.0
2018-May-08 17:30N 01°15' E 103°53'0 0.0
2018-May-08 16:57N 01°15' E 103°53'0 0.1
2018-May-08 16:30N 01°15' E 103°53'0 0.0
2018-May-08 15:59N 01°15' E 103°53'0 0.0
2018-May-08 15:26N 01°15' E 103°53'0 0.0
2018-May-08 14:56N 01°15' E 103°53'0 0.0
2018-May-08 14:23N 01°15' E 103°53'0 0.2
2018-May-08 14:00N 01°15' E 103°53'2 4.5
2018-May-08 13:30N 01°14' E 103°55'5 8.2
2018-May-08 12:56N 01°15' E 103°59'3 7.4
2018-May-08 12:30N 01°16' E 104°02'5 9.4
2018-May-08 11:57N 01°17' E 104°07'410.2
2018-May-08 11:30N 01°17' E 104°12'610.1
2018-May-08 10:57N 01°18' E 104°17'612.4
2018-May-08 10:30N 01°21' E 104°22'612.4
2018-May-08 09:59N 01°25' E 104°27'  
2018-Apr-29 14:42N 37°20' E 123°34'212.9
2018-Apr-29 14:30N 37°23' E 123°34'8710.9
2018-Apr-29 06:32N 38°28' E 122°20'112.4
2018-Apr-29 06:27N 38°28' E 122°19'612.3
2018-Apr-29 05:56N 38°32' E 122°13'612.1
2018-Apr-29 05:27N 38°36' E 122°07'512.0
2018-Apr-29 05:00N 38°39' E 122°02'  

Dump ship's entire track history